Time;durP1;ratioP1;P1;durP2;ratioP2;P2;SDS_P1;SDS_P2;PMS_P1;PMS_P2;Temp;Humidity;BMP_temperature;BMP_pressure;BME280_temperature;BME280_humidity;BME280_pressure;Samples;Min_cycle;Max_cycle;Signal;HPM_P1;HPM_P2
2023/07/09 00:00:17;;;;;;;4.83;4.43;;;21.60;1.00;;;;;;4989568;28;20542;-73
2023/07/09 00:02:44;;;;;;;4.40;4.00;;;21.60;1.00;;;;;;4991866;28;20471;-72
2023/07/09 00:05:17;;;;;;;3.70;3.40;;;21.50;1.00;;;;;;4992280;28;20856;-72
2023/07/09 00:07:45;;;;;;;7.57;4.23;;;21.40;1.00;;;;;;4991664;28;20559;-73
2023/07/09 00:10:17;;;;;;;4.47;4.10;;;21.40;1.00;;;;;;4990199;28;20529;-74
2023/07/09 00:12:46;;;;;;;4.33;3.73;;;21.40;1.00;;;;;;4990932;28;20510;-73
2023/07/09 00:15:15;;;;;;;4.03;3.73;;;21.40;1.00;;;;;;4993756;28;20471;-73
2023/07/09 00:17:43;;;;;;;5.93;4.50;;;21.40;1.00;;;;;;4988109;28;21005;-72
2023/07/09 00:20:14;;;;;;;4.80;4.30;;;21.40;1.00;;;;;;4988918;28;20440;-73
2023/07/09 00:22:42;;;;;;;4.30;3.83;;;21.40;1.00;;;;;;4988405;28;20861;-73
2023/07/09 00:25:16;;;;;;;4.43;4.03;;;21.40;1.00;;;;;;4986443;28;20899;-74
2023/07/09 00:27:48;;;;;;;5.60;4.70;;;21.40;1.00;;;;;;4991007;28;20528;-74
2023/07/09 00:30:17;;;;;;;3.83;3.47;;;21.40;1.00;;;;;;4990474;28;20506;-75
2023/07/09 00:32:44;;;;;;;4.57;4.17;;;21.30;1.00;;;;;;4990891;28;20473;-73
2023/07/09 00:35:15;;;;;;;4.43;4.03;;;21.30;1.00;;;;;;4992697;28;20487;-73
2023/07/09 00:37:47;;;;;;;4.10;3.70;;;21.20;1.00;;;;;;4993432;28;21055;-73
2023/07/09 00:40:19;;;;;;;4.90;4.33;;;21.20;1.00;;;;;;4999711;28;20470;-75
2023/07/09 00:42:50;;;;;;;4.30;3.67;;;21.20;1.00;;;;;;4994654;28;20556;-74
2023/07/09 00:45:24;;;;;;;4.10;3.70;;;21.20;1.00;;;;;;5000440;28;20526;-73
2023/07/09 00:47:55;;;;;;;5.83;4.60;;;21.10;1.00;;;;;;4992179;28;21124;-73
2023/07/09 00:50:36;;;;;;;5.03;3.70;;;21.20;1.00;;;;;;4990954;28;20596;-74
2023/07/09 00:53:09;;;;;;;5.33;4.30;;;21.10;1.00;;;;;;4997819;28;20486;-74
2023/07/09 00:55:45;;;;;;;4.77;4.37;;;21.10;1.00;;;;;;4990794;28;20592;-74
2023/07/09 00:58:16;;;;;;;3.83;3.40;;;21.00;1.00;;;;;;4995870;28;20847;-74
2023/07/09 01:00:47;;;;;;;5.50;4.33;;;21.10;1.00;;;;;;5003892;28;20471;-75
2023/07/09 01:05:43;;;;;;;7.27;4.97;;;20.90;1.00;;;;;;5016593;28;20456;-73
2023/07/09 01:08:12;;;;;;;4.40;3.83;;;20.90;1.00;;;;;;5019949;28;20562;-74
2023/07/09 01:10:40;;;;;;;4.77;4.33;;;21.00;1.00;;;;;;5018659;28;20500;-74
2023/07/09 01:13:08;;;;;;;4.30;3.90;;;20.90;1.00;;;;;;5025530;28;20474;-73
2023/07/09 01:15:37;;;;;;;4.53;4.13;;;20.90;1.00;;;;;;5023517;28;20521;-73
2023/07/09 01:18:04;;;;;;;5.23;4.77;;;20.90;1.00;;;;;;5026179;28;20562;-73
2023/07/09 01:20:33;;;;;;;5.30;4.90;;;20.90;1.00;;;;;;5022379;28;20465;-73
2023/07/09 01:23:01;;;;;;;9.73;6.10;;;20.90;1.00;;;;;;5022359;28;20544;-73
2023/07/09 01:25:29;;;;;;;4.10;3.80;;;20.90;1.00;;;;;;5021319;28;20469;-73
2023/07/09 01:27:57;;;;;;;7.00;4.47;;;20.90;1.00;;;;;;5025131;28;20472;-73
2023/07/09 01:30:28;;;;;;;3.80;3.40;;;20.90;1.00;;;;;;5021119;28;20461;-74
2023/07/09 01:32:58;;;;;;;3.60;3.30;;;20.90;1.00;;;;;;5015847;28;20927;-74
2023/07/09 01:35:25;;;;;;;5.27;3.60;;;20.90;1.00;;;;;;5020276;28;20469;-74
2023/07/09 01:37:53;;;;;;;4.67;4.27;;;20.80;1.00;;;;;;5019322;28;20469;-73
2023/07/09 01:40:23;;;;;;;4.43;4.03;;;20.80;1.00;;;;;;5021952;28;20522;-74
2023/07/09 01:42:51;;;;;;;4.40;4.00;;;20.80;1.00;;;;;;5022031;28;21039;-74
2023/07/09 01:45:20;;;;;;;4.60;4.20;;;20.70;1.00;;;;;;5023277;28;21229;-74
2023/07/09 01:47:47;;;;;;;4.27;3.87;;;20.60;1.00;;;;;;5020060;28;20841;-74
2023/07/09 01:50:16;;;;;;;5.67;3.97;;;20.60;1.00;;;;;;5019104;28;20477;-74
2023/07/09 01:52:45;;;;;;;4.63;4.23;;;20.50;1.00;;;;;;5022002;28;20473;-74
2023/07/09 01:55:16;;;;;;;4.63;4.23;;;20.40;1.00;;;;;;5021372;28;21774;-72
2023/07/09 01:57:45;;;;;;;4.33;4.00;;;20.40;1.00;;;;;;5018653;28;20487;-74
2023/07/09 02:00:14;;;;;;;6.07;4.50;;;20.30;1.00;;;;;;5017759;28;21026;-73
2023/07/09 02:02:43;;;;;;;4.33;3.93;;;20.20;1.00;;;;;;5020349;28;21259;-73
2023/07/09 02:05:12;;;;;;;7.73;4.60;;;20.20;1.00;;;;;;5023199;28;20910;-72
2023/07/09 02:07:39;;;;;;;5.30;4.60;;;20.20;1.00;;;;;;5020003;28;21338;-74
2023/07/09 02:10:07;;;;;;;5.53;4.07;;;20.10;1.00;;;;;;5019527;28;21038;-73
2023/07/09 02:12:35;;;;;;;4.87;4.37;;;20.10;1.00;;;;;;5021706;28;20905;-73
2023/07/09 02:15:03;;;;;;;4.70;4.30;;;20.00;1.00;;;;;;5022176;28;20493;-73
2023/07/09 02:17:30;;;;;;;4.90;4.50;;;20.00;1.00;;;;;;5015956;28;20484;-73
2023/07/09 02:20:00;;;;;;;6.50;5.20;;;20.00;1.00;;;;;;5018885;28;21393;-74
2023/07/09 02:22:27;;;;;;;4.43;4.03;;;19.90;1.00;;;;;;5027263;28;20699;-75
2023/07/09 02:24:54;;;;;;;6.57;4.70;;;19.90;1.00;;;;;;5030166;28;20469;-74
2023/07/09 02:27:21;;;;;;;7.17;4.70;;;19.90;1.00;;;;;;5032572;28;20841;-74
2023/07/09 02:29:48;;;;;;;5.20;4.77;;;19.90;1.00;;;;;;5027845;28;20451;-73
2023/07/09 02:32:21;;;;;;;5.67;4.50;;;19.90;1.00;;;;;;5029576;28;20433;-73
2023/07/09 02:34:48;;;;;;;5.47;4.97;;;19.80;1.00;;;;;;5027791;28;20486;-73
2023/07/09 02:37:18;;;;;;;6.87;5.23;;;19.70;1.00;;;;;;5029189;28;20499;-73
2023/07/09 02:39:45;;;;;;;7.47;4.53;;;19.70;1.00;;;;;;5026645;28;20448;-73
2023/07/09 02:42:14;;;;;;;6.33;4.43;;;19.70;1.00;;;;;;5024919;28;20471;-73
2023/07/09 02:44:42;;;;;;;5.67;4.87;;;19.70;1.00;;;;;;5026175;28;21027;-73
2023/07/09 02:47:09;;;;;;;6.13;4.77;;;19.70;1.00;;;;;;5023076;28;20501;-73
2023/07/09 02:49:38;;;;;;;5.60;5.10;;;19.70;1.00;;;;;;5020501;28;20921;-73
2023/07/09 02:52:06;;;;;;;6.00;5.40;;;19.70;1.00;;;;;;5019583;28;20590;-72
2023/07/09 02:54:34;;;;;;;5.47;4.57;;;19.60;1.00;;;;;;5018464;28;21725;-74
2023/07/09 02:57:01;;;;;;;4.63;4.20;;;19.60;1.00;;;;;;5020249;28;20885;-72
2023/07/09 02:59:30;;;;;;;5.63;5.13;;;19.60;1.00;;;;;;5023224;28;20453;-73
2023/07/09 03:01:57;;;;;;;5.87;5.33;;;19.60;1.00;;;;;;5026461;28;20463;-74
2023/07/09 03:04:25;;;;;;;6.70;4.73;;;19.60;1.00;;;;;;5027007;28;20464;-74
2023/07/09 03:06:53;;;;;;;6.17;5.50;;;19.60;1.00;;;;;;5027141;28;20585;-74
2023/07/09 03:09:20;;;;;;;6.77;4.97;;;19.60;1.00;;;;;;5027338;28;20482;-74
2023/07/09 03:11:48;;;;;;;5.90;5.30;;;19.60;1.00;;;;;;5029559;28;20459;-73
2023/07/09 03:14:16;;;;;;;9.37;6.03;;;19.60;1.00;;;;;;5022317;28;20460;-73
2023/07/09 03:16:43;;;;;;;5.10;4.60;;;19.60;1.00;;;;;;5021961;28;20527;-74
2023/07/09 03:19:10;;;;;;;6.00;5.03;;;19.60;1.00;;;;;;5025635;28;21568;-74
2023/07/09 03:21:37;;;;;;;5.67;5.17;;;19.50;1.00;;;;;;5029012;28;20560;-73
2023/07/09 03:24:07;;;;;;;6.17;5.20;;;19.50;1.00;;;;;;5028985;28;20542;-73
2023/07/09 03:26:34;;;;;;;7.33;5.67;;;19.50;1.00;;;;;;5026630;28;20477;-73
2023/07/09 03:29:01;;;;;;;4.97;4.40;;;19.50;1.00;;;;;;5027176;28;21338;-73
2023/07/09 03:31:28;;;;;;;7.63;5.10;;;19.50;1.00;;;;;;5026964;28;20603;-74
2023/07/09 03:33:55;;;;;;;5.23;4.70;;;19.50;1.00;;;;;;5018572;28;21049;-73
2023/07/09 03:36:22;;;;;;;5.83;5.23;;;19.50;1.00;;;;;;5017782;28;20497;-73
2023/07/09 03:38:49;;;;;;;6.40;5.40;;;19.50;1.00;;;;;;5023087;28;20455;-73
2023/07/09 03:41:17;;;;;;;6.00;4.90;;;19.50;1.00;;;;;;5019311;28;20470;-74
2023/07/09 03:43:46;;;;;;;5.70;5.20;;;19.50;1.00;;;;;;5018260;28;20551;-73
2023/07/09 03:46:13;;;;;;;5.30;4.90;;;19.50;1.00;;;;;;5029981;28;20475;-73
2023/07/09 03:48:40;;;;;;;5.17;4.77;;;19.50;1.00;;;;;;5027575;28;20460;-72
2023/07/09 03:51:07;;;;;;;4.90;4.50;;;19.50;1.00;;;;;;5027335;28;20552;-73
2023/07/09 03:53:34;;;;;;;5.77;5.07;;;19.50;1.00;;;;;;5028102;28;20555;-73
2023/07/09 03:56:01;;;;;;;6.20;5.40;;;19.50;1.00;;;;;;5026867;28;21030;-73
2023/07/09 03:58:29;;;;;;;8.30;5.03;;;19.50;1.00;;;;;;5029333;28;20467;-73
2023/07/09 04:00:56;;;;;;;5.20;4.80;;;19.60;1.00;;;;;;5023389;28;20440;-73
2023/07/09 04:03:23;;;;;;;6.10;5.33;;;19.60;1.00;;;;;;5013927;28;20436;-74
2023/07/09 04:05:51;;;;;;;5.03;4.53;;;19.70;1.00;;;;;;5022558;28;20633;-73
2023/07/09 04:08:18;;;;;;;6.13;5.50;;;19.70;1.00;;;;;;5026208;28;20472;-73
2023/07/09 04:10:45;;;;;;;5.57;5.10;;;19.70;1.00;;;;;;5025311;28;20460;-73
2023/07/09 04:13:12;;;;;;;6.57;5.27;;;19.80;1.00;;;;;;5017648;28;20556;-73
2023/07/09 04:15:40;;;;;;;6.10;5.20;;;19.80;1.00;;;;;;5025965;28;20894;-73
2023/07/09 04:18:07;;;;;;;6.00;5.40;;;19.80;1.00;;;;;;5027428;28;20528;-73
2023/07/09 04:20:35;;;;;;;6.53;5.10;;;19.90;1.00;;;;;;5020538;28;20571;-72
2023/07/09 04:23:02;;;;;;;6.37;5.60;;;19.90;1.00;;;;;;5016273;28;20839;-73
2023/07/09 04:25:29;;;;;;;5.53;5.13;;;19.90;1.00;;;;;;5023124;28;20590;-72
2023/07/09 04:27:56;;;;;;;5.53;5.03;;;19.90;1.00;;;;;;5029471;28;20497;-73
2023/07/09 04:30:24;;;;;;;7.63;6.00;;;19.90;1.00;;;;;;5025711;28;20782;-74
2023/07/09 04:32:52;;;;;;;5.63;5.13;;;20.00;1.00;;;;;;5024635;28;21978;-74
2023/07/09 04:35:20;;;;;;;6.03;5.43;;;20.10;1.00;;;;;;5024189;28;20505;-74
2023/07/09 04:37:47;;;;;;;6.03;4.97;;;20.10;1.00;;;;;;5027200;28;21853;-72
2023/07/09 04:40:15;;;;;;;6.60;5.23;;;20.10;1.00;;;;;;5020260;28;22154;-73
2023/07/09 04:42:43;;;;;;;7.73;4.80;;;20.20;1.00;;;;;;5026807;28;20467;-73
2023/07/09 04:45:11;;;;;;;5.67;4.80;;;20.20;1.00;;;;;;5029298;28;20480;-74
2023/07/09 04:47:40;;;;;;;5.90;4.77;;;20.30;1.00;;;;;;5023488;28;21793;-74
2023/07/09 04:50:10;;;;;;;5.37;4.87;;;20.40;1.00;;;;;;5028286;28;20852;-73
2023/07/09 04:52:37;;;;;;;4.90;4.50;;;20.50;1.00;;;;;;5020609;28;20610;-74
2023/07/09 04:55:05;;;;;;;5.37;4.87;;;20.50;1.00;;;;;;5023060;28;20587;-74
2023/07/09 04:57:32;;;;;;;6.40;5.27;;;20.60;1.00;;;;;;5026119;28;20461;-74
2023/07/09 04:59:59;;;;;;;6.17;5.17;;;20.70;1.00;;;;;;5026328;28;22303;-74
2023/07/09 05:02:26;;;;;;;5.27;4.87;;;20.80;1.00;;;;;;5021303;28;20463;-74
2023/07/09 05:04:53;;;;;;;5.27;4.87;;;20.90;1.00;;;;;;5025145;28;21014;-73
2023/07/09 05:07:22;;;;;;;5.47;5.07;;;20.90;1.00;;;;;;5024007;28;20929;-73
2023/07/09 05:09:49;;;;;;;5.27;4.77;;;21.00;1.00;;;;;;5020338;28;20465;-73
2023/07/09 05:12:16;;;;;;;5.43;4.83;;;21.00;1.00;;;;;;5018596;28;20478;-73
2023/07/09 05:14:44;;;;;;;4.93;4.53;;;21.10;1.00;;;;;;5017256;28;20589;-72
2023/07/09 05:17:11;;;;;;;6.23;5.23;;;21.20;1.00;;;;;;5026337;28;20483;-73
2023/07/09 05:19:38;;;;;;;6.27;5.70;;;21.30;1.00;;;;;;5031297;28;20572;-74
2023/07/09 05:22:05;;;;;;;4.77;4.37;;;21.40;1.00;;;;;;5025824;28;20464;-73
2023/07/09 05:24:33;;;;;;;4.97;4.57;;;21.40;1.00;;;;;;5028528;28;20510;-73
2023/07/09 05:27:00;;;;;;;6.60;5.37;;;21.50;1.00;;;;;;5027317;28;20460;-74
2023/07/09 05:29:28;;;;;;;5.77;4.77;;;21.70;1.00;;;;;;5028612;28;20459;-74
2023/07/09 05:31:55;;;;;;;4.90;4.50;;;21.80;1.00;;;;;;5031217;28;20467;-74
2023/07/09 05:34:22;;;;;;;4.67;4.23;;;21.90;1.00;;;;;;5022257;28;20483;-73
2023/07/09 05:36:49;;;;;;;4.87;4.43;;;22.10;1.00;;;;;;5023070;28;20970;-74
2023/07/09 05:39:16;;;;;;;4.53;4.20;;;22.20;1.00;;;;;;5029022;28;20462;-74
2023/07/09 05:41:45;;;;;;;4.60;4.20;;;22.30;1.00;;;;;;5028890;28;20459;-73
2023/07/09 05:44:12;;;;;;;4.97;4.47;;;22.40;1.00;;;;;;5021979;28;20568;-74
2023/07/09 05:46:39;;;;;;;4.77;4.37;;;22.50;1.00;;;;;;5027374;28;20456;-74
2023/07/09 05:49:07;;;;;;;5.37;4.87;;;22.50;1.00;;;;;;5027806;28;20441;-74
2023/07/09 05:51:35;;;;;;;5.60;4.83;;;22.50;1.00;;;;;;5031180;28;20466;-73
2023/07/09 05:54:02;;;;;;;5.20;4.80;;;22.60;1.00;;;;;;5034436;28;21296;-73
2023/07/09 05:56:29;;;;;;;5.53;5.03;;;22.60;1.00;;;;;;5027955;28;20491;-73
2023/07/09 05:58:58;;;;;;;6.37;4.63;;;22.70;1.00;;;;;;5028964;28;20463;-74
2023/07/09 06:01:26;;;;;;;5.37;4.87;;;22.80;1.00;;;;;;5028998;28;20462;-74
2023/07/09 06:03:54;;;;;;;6.63;4.63;;;23.00;1.00;;;;;;5026772;28;20478;-74
2023/07/09 06:06:21;;;;;;;4.47;4.07;;;23.10;1.00;;;;;;5029325;28;20476;-74
2023/07/09 06:08:50;;;;;;;4.30;4.00;;;23.20;1.00;;;;;;5029564;28;20466;-73
2023/07/09 06:11:20;;;;;;;10.37;6.10;;;23.20;1.00;;;;;;5024327;28;20957;-74
2023/07/09 06:13:48;;;;;;;4.70;4.30;;;23.40;1.00;;;;;;5023637;28;20709;-73
2023/07/09 06:16:19;;;;;;;4.83;4.43;;;23.50;1.00;;;;;;5022374;28;21071;-74
2023/07/09 06:18:46;;;;;;;6.63;5.70;;;23.60;1.00;;;;;;5018933;28;20478;-73
2023/07/09 06:21:13;;;;;;;5.63;5.13;;;23.80;1.00;;;;;;5027764;28;20465;-74
2023/07/09 06:23:40;;;;;;;5.00;4.50;;;23.90;1.00;;;;;;5027986;28;20566;-74
2023/07/09 06:26:07;;;;;;;4.67;4.27;;;24.00;1.00;;;;;;5013814;28;20459;-75
2023/07/09 06:28:34;;;;;;;5.97;5.27;;;24.20;1.00;;;;;;5028240;28;20489;-74
2023/07/09 06:31:01;;;;;;;5.13;4.60;;;24.20;1.00;;;;;;5026484;28;20983;-71
2023/07/09 06:33:30;;;;;;;6.47;5.27;;;24.10;1.00;;;;;;5029514;28;20574;-75
2023/07/09 06:35:59;;;;;;;6.00;5.40;;;24.00;1.00;;;;;;5026154;28;20510;-73
2023/07/09 06:38:27;;;;;;;5.10;4.70;;;24.10;1.00;;;;;;5024907;28;20564;-74
2023/07/09 06:40:54;;;;;;;5.50;5.10;;;24.20;1.00;;;;;;5027736;28;20819;-74
2023/07/09 06:43:22;;;;;;;5.50;4.67;;;24.20;1.00;;;;;;5029967;28;20455;-73
2023/07/09 06:45:50;;;;;;;4.80;4.40;;;24.30;1.00;;;;;;5028635;28;20450;-74
2023/07/09 06:48:17;;;;;;;5.93;5.43;;;24.30;1.00;;;;;;5032797;28;20995;-74
2023/07/09 06:50:46;;;;;;;4.90;4.40;;;24.50;1.00;;;;;;5019826;28;20758;-74
2023/07/09 06:53:13;;;;;;;4.63;4.33;;;24.60;1.00;;;;;;5027478;28;20491;-74
2023/07/09 06:55:40;;;;;;;5.03;4.43;;;24.70;1.00;;;;;;5029659;28;20474;-73
2023/07/09 06:58:07;;;;;;;5.03;4.63;;;24.80;1.00;;;;;;5030338;28;20536;-73
2023/07/09 07:00:36;;;;;;;5.00;4.60;;;24.90;1.00;;;;;;5103940;22;20583;-71
2023/07/09 07:03:03;;;;;;;8.47;5.63;;;25.00;1.00;;;;;;5041712;28;21315;-71
2023/07/09 07:05:31;;;;;;;5.27;4.80;;;25.10;1.00;;;;;;5039648;28;20475;-71
2023/07/09 07:08:00;;;;;;;4.70;4.30;;;25.00;1.00;;;;;;5040369;28;20442;-71
2023/07/09 07:10:28;;;;;;;5.27;4.87;;;25.20;1.00;;;;;;5042721;28;20600;-72
2023/07/09 07:12:55;;;;;;;5.47;5.07;;;25.30;1.00;;;;;;5044788;28;20468;-72
2023/07/09 07:15:23;;;;;;;5.33;4.80;;;25.50;1.00;;;;;;5040346;28;20452;-70
2023/07/09 07:17:50;;;;;;;5.83;5.23;;;25.50;1.00;;;;;;5033853;28;20459;-71
2023/07/09 07:20:17;;;;;;;5.50;5.00;;;25.60;1.00;;;;;;5038916;28;21091;-71
2023/07/09 07:22:45;;;;;;;4.43;4.13;;;25.60;1.00;;;;;;5042100;28;20477;-71
2023/07/09 07:25:14;;;;;;;9.00;8.30;;;25.70;1.00;;;;;;5041858;28;20448;-71
2023/07/09 07:27:41;;;;;;;7.20;6.37;;;26.00;1.00;;;;;;5040219;28;20530;-71
2023/07/09 07:30:09;;;;;;;6.07;5.57;;;26.10;1.00;;;;;;5042619;28;20462;-71
2023/07/09 07:32:38;;;;;;;5.57;5.07;;;26.20;1.00;;;;;;5039026;28;20483;-71
2023/07/09 07:35:06;;;;;;;6.00;5.40;;;26.10;1.00;;;;;;5040605;28;20452;-72
2023/07/09 07:37:33;;;;;;;5.37;4.97;;;26.20;1.00;;;;;;5040496;28;21520;-70
2023/07/09 07:40:00;;;;;;;7.37;5.73;;;26.30;1.00;;;;;;5043271;28;20447;-71
2023/07/09 07:42:29;;;;;;;6.20;5.70;;;26.40;1.00;;;;;;5025238;28;21082;-73
2023/07/09 07:44:56;;;;;;;5.90;5.40;;;26.50;1.00;;;;;;5041895;28;20593;-71
2023/07/09 07:47:23;;;;;;;7.10;5.37;;;26.70;1.00;;;;;;5036692;28;20532;-71
2023/07/09 07:49:51;;;;;;;5.60;5.10;;;26.70;1.00;;;;;;5042007;28;20547;-71
2023/07/09 07:52:18;;;;;;;6.53;5.70;;;26.80;1.00;;;;;;5034606;28;20464;-72
2023/07/09 07:54:45;;;;;;;6.03;5.43;;;27.00;1.00;;;;;;5033035;28;20467;-71
2023/07/09 07:57:12;;;;;;;6.33;5.73;;;27.10;1.00;;;;;;5043322;28;20465;-71
2023/07/09 07:59:41;;;;;;;5.20;4.90;;;27.30;1.00;;;;;;5040677;28;20500;-73
2023/07/09 08:02:13;;;;;;;5.50;5.10;;;27.40;1.00;;;;;;5042175;28;21019;-71
2023/07/09 08:04:41;;;;;;;5.60;5.10;;;27.60;1.00;;;;;;5043512;28;20486;-72
2023/07/09 08:07:09;;;;;;;7.27;5.50;;;27.70;1.00;;;;;;5043303;28;20941;-71
2023/07/09 08:09:36;;;;;;;5.67;5.13;;;27.60;1.00;;;;;;5041640;28;20517;-71
2023/07/09 08:12:11;;;;;;;5.30;4.90;;;27.90;1.00;;;;;;5040846;28;20477;-72
2023/07/09 08:14:39;;;;;;;5.70;5.20;;;27.90;1.00;;;;;;5039224;28;20469;-71
2023/07/09 08:17:09;;;;;;;6.00;5.20;;;28.00;1.00;;;;;;5041998;28;20464;-71
2023/07/09 08:19:47;;;;;;;6.07;5.57;;;28.10;1.00;;;;;;5041127;28;20468;-70
2023/07/09 08:22:16;;;;;;;5.40;5.00;;;28.30;1.00;;;;;;5038637;28;20459;-69
2023/07/09 08:24:43;;;;;;;5.83;5.33;;;28.50;1.00;;;;;;5036647;28;20454;-72
2023/07/09 08:27:11;;;;;;;5.43;5.03;;;28.60;1.00;;;;;;5045784;28;20466;-70
2023/07/09 08:29:39;;;;;;;5.93;5.13;;;28.80;1.00;;;;;;5033040;28;20558;-70
2023/07/09 08:32:09;;;;;;;5.40;5.00;;;28.90;1.00;;;;;;5040344;28;20471;-71
2023/07/09 08:34:36;;;;;;;6.13;5.60;;;29.10;1.00;;;;;;5038492;28;20978;-71
2023/07/09 08:37:03;;;;;;;6.03;5.43;;;29.00;1.00;;;;;;5040106;28;20467;-70
2023/07/09 08:39:30;;;;;;;5.47;5.03;;;29.00;1.00;;;;;;5041108;28;20817;-71
2023/07/09 08:42:00;;;;;;;7.20;5.30;;;29.20;1.00;;;;;;5041627;28;20467;-69
2023/07/09 08:44:56;;;;;;;6.27;5.10;;;29.30;1.00;;;;;;5039436;28;20911;-71
2023/07/09 08:47:34;;;;;;;7.87;5.03;;;29.30;1.00;;;;;;5037153;28;20598;-71
2023/07/09 08:50:05;;;;;;;5.20;4.80;;;29.20;1.00;;;;;;5040004;28;20460;-69
2023/07/09 08:52:36;;;;;;;5.70;5.30;;;29.40;1.00;;;;;;5046684;28;20855;-70
2023/07/09 08:55:08;;;;;;;5.03;4.50;;;29.50;1.00;;;;;;5044829;28;20475;-71
2023/07/09 08:57:38;;;;;;;4.00;3.80;;;29.60;1.00;;;;;;5043599;28;20456;-71
2023/07/09 09:00:14;;;;;;;5.80;5.20;;;29.80;1.00;;;;;;5045230;28;20459;-70
2023/07/09 09:02:49;;;;;;;5.50;5.00;;;29.90;1.00;;;;;;5041295;28;20621;-70
2023/07/09 09:05:19;;;;;;;5.63;5.13;;;30.10;1.00;;;;;;5041503;28;20602;-70
2023/07/09 09:07:51;;;;;;;6.20;5.33;;;30.30;1.00;;;;;;5043509;28;20518;-70
2023/07/09 09:10:23;;;;;;;5.53;5.03;;;30.40;1.00;;;;;;5047280;28;20506;-70
2023/07/09 09:13:04;;;;;;;5.60;5.20;;;30.50;1.00;;;;;;5044424;28;21398;-70
2023/07/09 09:15:32;;;;;;;5.03;4.63;;;30.60;1.00;;;;;;5045486;28;20456;-70
2023/07/09 09:18:21;;;;;;;6.00;5.53;;;30.70;1.00;;;;;;5040357;28;20464;-68
2023/07/09 09:20:56;;;;;;;5.57;4.17;;;30.90;1.00;;;;;;5040205;28;20455;-69
2023/07/09 09:23:26;;;;;;;5.33;4.83;;;30.70;1.00;;;;;;5045584;28;20471;-70
2023/07/09 09:25:56;;;;;;;4.80;4.50;;;30.50;1.00;;;;;;5046063;28;20614;-71
2023/07/09 09:28:25;;;;;;;6.83;5.20;;;30.60;1.00;;;;;;5041420;28;21059;-71
2023/07/09 09:30:52;;;;;;;5.07;4.57;;;30.80;1.00;;;;;;5038868;28;20579;-71
2023/07/09 09:33:20;;;;;;;5.33;4.83;;;31.10;1.00;;;;;;5045291;28;22522;-70
2023/07/09 09:35:48;;;;;;;5.40;5.00;;;31.30;1.00;;;;;;5044438;28;21125;-70
2023/07/09 09:38:18;;;;;;;6.40;5.90;;;31.40;1.00;;;;;;5049360;28;20465;-70
2023/07/09 09:40:45;;;;;;;6.17;5.67;;;31.60;1.00;;;;;;5040302;28;21035;-71
2023/07/09 09:43:15;;;;;;;4.20;3.90;;;31.90;1.00;;;;;;5041522;28;20464;-71
2023/07/09 09:45:43;;;;;;;4.93;4.57;;;33.00;1.00;;;;;;5040014;28;20535;-71
2023/07/09 09:48:22;;;;;;;4.80;4.50;;;34.50;1.00;;;;;;5041916;28;20481;-72
2023/07/09 09:50:50;;;;;;;5.00;4.57;;;35.70;1.00;;;;;;5038556;28;20472;-72
2023/07/09 09:53:21;;;;;;;4.83;4.43;;;36.70;1.00;;;;;;5046594;28;20483;-71
2023/07/09 09:55:49;;;;;;;5.60;5.20;;;37.30;1.00;;;;;;5048623;28;20650;-71
2023/07/09 09:58:18;;;;;;;4.80;4.40;;;38.00;1.00;;;;;;5045662;28;20547;-72
2023/07/09 10:00:51;;;;;;;4.90;4.50;;;37.60;1.00;;;;;;5041653;28;20485;-72
2023/07/09 10:03:21;;;;;;;5.87;5.27;;;37.60;1.00;;;;;;5045108;28;20476;-71
2023/07/09 10:05:53;;;;;;;4.73;4.27;;;38.30;1.00;;;;;;5049087;28;20456;-74
2023/07/09 10:08:30;;;;;;;5.03;4.63;;;39.20;1.00;;;;;;5045829;28;20459;-71
2023/07/09 10:11:07;;;;;;;4.60;4.30;;;40.00;1.00;;;;;;5045632;28;20472;-73
2023/07/09 10:13:38;;;;;;;5.97;5.40;;;39.70;1.00;;;;;;5047452;28;20874;-72
2023/07/09 10:16:09;;;;;;;4.80;4.50;;;40.20;1.00;;;;;;5037426;28;20504;-72
2023/07/09 10:18:50;;;;;;;5.13;4.70;;;40.60;1.00;;;;;;5040729;28;20886;-73
2023/07/09 10:21:26;;;;;;;4.77;4.37;;;41.10;1.00;;;;;;5046792;28;20994;-72
2023/07/09 10:24:03;;;;;;;5.23;4.83;;;41.40;1.00;;;;;;5033880;28;20885;-74
2023/07/09 10:26:36;;;;;;;4.70;4.30;;;41.80;1.00;;;;;;5034440;28;20836;-73
2023/07/09 10:29:32;;;;;;;6.60;5.23;;;41.90;1.00;;;;;;5040276;28;20457;-71
2023/07/09 10:32:09;;;;;;;5.57;4.80;;;42.10;1.00;;;;;;5034665;28;20919;-72
2023/07/09 10:34:51;;;;;;;5.47;5.07;;;42.70;1.00;;;;;;5047953;28;20518;-72
2023/07/09 10:37:35;;;;;;;5.07;4.67;;;43.10;1.00;;;;;;5050050;28;20491;-71
2023/07/09 10:40:05;;;;;;;4.43;4.17;;;43.10;1.00;;;;;;5046816;28;20451;-72
2023/07/09 10:42:38;;;;;;;6.23;5.73;;;42.70;1.00;;;;;;5043217;28;20480;-72
2023/07/09 10:45:14;;;;;;;5.10;4.73;;;42.40;1.00;;;;;;5048331;28;20475;-72
2023/07/09 10:47:44;;;;;;;6.93;5.30;;;42.80;1.00;;;;;;5040311;28;20551;-72
2023/07/09 10:50:18;;;;;;;5.30;4.80;;;43.30;1.00;;;;;;5041834;28;20465;-72
2023/07/09 10:52:51;;;;;;;4.60;4.30;;;43.50;1.00;;;;;;5041843;28;20544;-71
2023/07/09 10:55:21;;;;;;;4.83;4.53;;;43.90;1.00;;;;;;5018572;28;20492;-72
2023/07/09 10:57:55;;;;;;;5.50;5.10;;;43.80;1.00;;;;;;5039488;28;20464;-72
2023/07/09 11:00:26;;;;;;;4.90;4.50;;;43.70;1.00;;;;;;5038177;28;20456;-72
2023/07/09 11:03:01;;;;;;;4.80;4.50;;;43.70;1.00;;;;;;5024338;28;20464;-72
2023/07/09 11:05:30;;;;;;;5.67;4.43;;;43.70;1.00;;;;;;5039820;28;21079;-72
2023/07/09 11:08:01;;;;;;;5.47;4.90;;;43.70;1.00;;;;;;5042529;28;20457;-71
2023/07/09 11:10:33;;;;;;;5.10;4.80;;;44.00;1.00;;;;;;5045179;28;20463;-71
2023/07/09 11:13:04;;;;;;;5.50;5.10;;;43.80;1.00;;;;;;5039693;28;20458;-72
2023/07/09 11:15:36;;;;;;;7.40;5.37;;;43.70;1.00;;;;;;5044370;28;20487;-71
2023/07/09 11:18:06;;;;;;;5.80;5.40;;;43.90;1.00;;;;;;5045988;28;20458;-71
2023/07/09 11:20:38;;;;;;;7.83;6.80;;;44.20;1.00;;;;;;5042703;28;20450;-72
2023/07/09 11:23:07;;;;;;;5.90;5.43;;;44.40;1.00;;;;;;5035526;28;20469;-72
2023/07/09 11:25:43;;;;;;;10.43;9.63;;;44.60;1.00;;;;;;5039273;28;20480;-71
2023/07/09 11:28:10;;;;;;;10.50;9.70;;;44.30;1.00;;;;;;5047232;28;20461;-73
2023/07/09 11:30:49;;;;;;;10.37;9.57;;;43.80;1.00;;;;;;5041207;28;20912;-71
2023/07/09 11:33:21;;;;;;;10.40;9.70;;;43.10;1.00;;;;;;5042849;28;20413;-72
2023/07/09 11:35:51;;;;;;;11.27;10.27;;;43.00;1.00;;;;;;5043091;28;20465;-72
2023/07/09 11:38:20;;;;;;;10.57;9.77;;;43.60;1.00;;;;;;5043022;28;20444;-70
2023/07/09 11:40:51;;;;;;;10.20;9.40;;;43.60;1.00;;;;;;5044891;28;20493;-70
2023/07/09 11:43:37;;;;;;;11.50;10.30;;;43.80;1.00;;;;;;5035821;28;20460;-72
2023/07/09 11:46:12;;;;;;;9.53;8.87;;;44.30;1.00;;;;;;5036827;28;21070;-71
2023/07/09 11:48:41;;;;;;;7.97;7.47;;;44.00;1.00;;;;;;5032900;28;20466;-73
2023/07/09 11:51:16;;;;;;;8.10;7.53;;;43.30;1.00;;;;;;5032638;28;20561;-72
2023/07/09 11:53:47;;;;;;;7.37;6.80;;;43.70;1.00;;;;;;5031954;28;20532;-72
2023/07/09 11:56:21;;;;;;;7.03;6.53;;;43.90;1.00;;;;;;5032334;28;20496;-73
2023/07/09 11:58:52;;;;;;;6.53;6.13;;;44.30;1.00;;;;;;5031862;28;20440;-73
2023/07/09 12:01:22;;;;;;;7.03;6.60;;;44.60;1.00;;;;;;5035668;28;20527;-72
2023/07/09 12:03:50;;;;;;;5.63;5.23;;;45.20;1.00;;;;;;5039780;28;20520;-73
2023/07/09 12:06:22;;;;;;;7.63;7.03;;;45.00;1.00;;;;;;5042202;28;20526;-77
2023/07/09 12:08:50;;;;;;;6.63;6.23;;;45.30;1.00;;;;;;5030648;28;21297;-75
2023/07/09 12:11:23;;;;;;;7.37;6.87;;;45.90;1.00;;;;;;5032634;28;20959;-75
2023/07/09 12:13:50;;;;;;;6.97;6.43;;;45.80;1.00;;;;;;5046814;28;20436;-74
2023/07/09 12:16:23;;;;;;;6.17;5.70;;;45.60;1.00;;;;;;5046032;28;20448;-74
2023/07/09 12:18:49;;;;;;;5.33;4.93;;;45.50;1.00;;;;;;5039476;28;20538;-75
2023/07/09 12:21:17;;;;;;;6.07;5.57;;;43.90;1.00;;;;;;5036562;28;20553;-75
2023/07/09 12:23:45;;;;;;;5.20;4.90;;;44.10;1.00;;;;;;5036509;28;20460;-75
2023/07/09 12:26:15;;;;;;;4.90;4.60;;;44.30;1.00;;;;;;5047518;28;20538;-75
2023/07/09 12:28:42;;;;;;;6.30;5.60;;;44.20;1.00;;;;;;5049090;28;20460;-74
2023/07/09 12:31:15;;;;;;;5.40;5.07;;;44.40;1.00;;;;;;5051809;28;20593;-75
2023/07/09 12:33:49;;;;;;;5.80;5.30;;;44.70;1.00;;;;;;5049278;28;20452;-76
2023/07/09 12:36:18;;;;;;;6.67;5.83;;;44.90;1.00;;;;;;5048081;28;20513;-75
2023/07/09 12:38:50;;;;;;;5.17;4.87;;;45.00;1.00;;;;;;5047808;28;20910;-75
2023/07/09 12:41:24;;;;;;;5.50;5.20;;;45.10;1.00;;;;;;5045376;28;20484;-74
2023/07/09 12:43:53;;;;;;;4.60;4.20;;;45.50;1.00;;;;;;5039351;28;20483;-75
2023/07/09 12:46:21;;;;;;;5.60;5.20;;;45.70;1.00;;;;;;5045483;28;20477;-75
2023/07/09 12:48:50;;;;;;;4.90;4.50;;;45.70;1.00;;;;;;5041334;28;20502;-74
2023/07/09 12:51:24;;;;;;;5.17;4.60;;;46.00;1.00;;;;;;5042182;28;20597;-75
2023/07/09 12:54:05;;;;;;;5.83;5.43;;;46.30;1.00;;;;;;5019222;28;20455;-75
2023/07/09 12:56:35;;;;;;;4.93;4.50;;;46.60;1.00;;;;;;5036837;28;20474;-75
2023/07/09 12:59:09;;;;;;;5.50;5.00;;;46.30;1.00;;;;;;5048429;28;20527;-74
2023/07/09 13:01:37;;;;;;;4.97;4.67;;;46.00;1.00;;;;;;5042982;28;20496;-79
2023/07/09 13:04:04;;;;;;;4.70;4.40;;;45.90;1.00;;;;;;5041138;28;20485;-75
2023/07/09 13:06:36;;;;;;;5.43;4.33;;;46.30;1.00;;;;;;5039786;28;20557;-76
2023/07/09 13:09:17;;;;;;;4.90;4.60;;;46.60;1.00;;;;;;5038462;28;20455;-76
2023/07/09 13:11:47;;;;;;;5.30;4.90;;;46.30;1.00;;;;;;5042694;28;20464;-77